Time;durP1;ratioP1;P1;durP2;ratioP2;P2;SDS_P1;SDS_P2;PMS_P1;PMS_P2;Temp;Humidity;BMP_temperature;BMP_pressure;BME280_temperature;BME280_humidity;BME280_pressure;Samples;Min_cycle;Max_cycle;Signal;HPM_P1;HPM_P2
2022/03/14 00:00:46;;;;;;;;;;;2.20;91.00;;;;;;5104022;28;19924;-70
2022/03/14 00:03:14;;;;;;;;;;;2.10;91.10;;;;;;5103748;28;19927;-70
2022/03/14 00:05:41;;;;;;;;;;;2.10;91.30;;;;;;5103190;28;19920;-70
2022/03/14 00:08:08;;;;;;;;;;;2.10;91.30;;;;;;5103936;28;19935;-70
2022/03/14 00:10:35;;;;;;;;;;;2.10;91.40;;;;;;5103390;28;19920;-70
2022/03/14 00:13:04;;;;;;;;;;;2.10;91.60;;;;;;5103413;28;20154;-70
2022/03/14 00:15:32;;;;;;;;;;;2.10;91.60;;;;;;5102960;28;19928;-70
2022/03/14 00:18:01;;;;;;;;;;;2.10;91.70;;;;;;5103983;28;19978;-70
2022/03/14 00:20:29;;;;;;;;;;;2.00;91.90;;;;;;5103683;28;19920;-70
2022/03/14 00:22:56;;;;;;;;;;;1.90;91.90;;;;;;5103590;28;20204;-70
2022/03/14 00:25:23;;;;;;;;;;;1.90;91.80;;;;;;5102451;28;19983;-69
2022/03/14 00:27:49;;;;;;;;;;;1.80;91.50;;;;;;5103525;28;19920;-70
2022/03/14 00:30:16;;;;;;;;;;;1.80;91.70;;;;;;5103521;28;19927;-70
2022/03/14 00:32:42;;;;;;;;;;;1.70;91.70;;;;;;5103420;28;19920;-70
2022/03/14 00:35:10;;;;;;;;;;;1.70;91.80;;;;;;5101227;28;19920;-69
2022/03/14 00:37:38;;;;;;;;;;;1.60;91.60;;;;;;5114553;28;19920;-70
2022/03/14 00:40:07;;;;;;;;;;;1.60;91.70;;;;;;5103136;28;20166;-69
2022/03/14 00:42:33;;;;;;;;;;;1.60;91.90;;;;;;5103085;28;19920;-70
2022/03/14 00:45:00;;;;;;;;;;;1.60;91.90;;;;;;5103410;28;19920;-70
2022/03/14 00:47:28;;;;;;;;;;;1.60;92.00;;;;;;5110898;28;19920;-70
2022/03/14 00:49:54;;;;;;;;;;;1.50;92.10;;;;;;5102798;28;20264;-70
2022/03/14 00:52:21;;;;;;;;;;;1.60;92.30;;;;;;5102853;28;20226;-70
2022/03/14 00:54:49;;;;;;;;;;;1.60;92.40;;;;;;5103320;28;19927;-70
2022/03/14 00:57:17;;;;;;;;;;;1.50;92.50;;;;;;5102546;28;19920;-70
2022/03/14 00:59:43;;;;;;;;;;;1.50;92.50;;;;;;5102756;28;19926;-70
2022/03/14 01:02:10;;;;;;;;;;;1.50;92.80;;;;;;5103577;28;19927;-69
2022/03/14 01:04:37;;;;;;;;;;;1.50;93.10;;;;;;5102252;28;19990;-70
2022/03/14 01:07:04;;;;;;;;;;;1.50;93.10;;;;;;5106402;28;19920;-70
2022/03/14 01:09:31;;;;;;;;;;;1.50;93.30;;;;;;5107663;28;19920;-70
2022/03/14 01:11:59;;;;;;;;;;;1.60;93.50;;;;;;5107131;28;19936;-70
2022/03/14 01:14:26;;;;;;;;;;;1.50;93.40;;;;;;5111641;22;19923;-95
2022/03/14 01:16:53;;;;;;;;;;;1.50;93.40;;;;;;5109639;28;19912;-96
2022/03/14 01:19:20;;;;;;;;;;;1.90;93.50;;;;;;5108432;28;19908;-95
2022/03/14 01:21:47;;;;;;;;;;;1.40;93.30;;;;;;5122645;28;19919;-96
2022/03/14 01:24:13;;;;;;;;;;;2.10;94.20;;;;;;5127404;28;19907;-95
2022/03/14 01:26:40;;;;;;;;;;;1.40;93.50;;;;;;5140575;28;19960;-96
2022/03/14 01:29:09;;;;;;;;;;;1.40;93.70;;;;;;5136302;28;19936;-95
2022/03/14 01:31:35;;;;;;;;;;;2.20;94.20;;;;;;5132997;28;19931;-95
2022/03/14 01:34:02;;;;;;;;;;;1.50;94.20;;;;;;5143086;28;19938;-95
2022/03/14 01:36:29;;;;;;;;;;;3.10;95.00;;;;;;5130148;28;19975;-94
2022/03/14 01:38:56;;;;;;;;;;;1.30;94.20;;;;;;5142981;28;19950;-95
2022/03/14 01:41:23;;;;;;;;;;;2.00;94.70;;;;;;5143505;28;19968;-96
2022/03/14 01:43:50;;;;;;;;;;;2.00;94.70;;;;;;5102363;28;19920;-95
2022/03/14 01:46:18;;;;;;;;;;;1.80;94.40;;;;;;5111075;28;19908;-96
2022/03/14 01:48:45;;;;;;;;;;;2.00;94.50;;;;;;5122414;28;19919;-95
2022/03/14 01:51:13;;;;;;;;;;;1.60;94.50;;;;;;5123194;28;19912;-94
2022/03/14 01:53:40;;;;;;;;;;;0.50;94.20;;;;;;5122559;28;19923;-95
2022/03/14 01:56:07;;;;;;;;;;;1.00;94.80;;;;;;5122491;28;19908;-96
2022/03/14 01:58:34;;;;;;;;;;;2.10;95.50;;;;;;5137202;28;19920;-95
2022/03/14 02:01:01;;;;;;;;;;;1.00;95.20;;;;;;5123429;28;19915;-95
2022/03/14 02:03:29;;;;;;;;;;;1.00;95.30;;;;;;5123989;28;19939;-95
2022/03/14 02:05:55;;;;;;;;;;;1.50;95.50;;;;;;5142349;28;20000;-95
2022/03/14 02:08:22;;;;;;;;;;;1.50;95.70;;;;;;5142660;28;19971;-96
2022/03/14 02:10:49;;;;;;;;;;;1.10;95.70;;;;;;5137224;28;19968;-95
2022/03/14 02:13:16;;;;;;;;;;;1.70;96.00;;;;;;5122095;28;19940;-95
2022/03/14 02:15:45;;;;;;;;;;;1.20;95.80;;;;;;5121425;28;19946;-94
2022/03/14 02:18:12;;;;;;;;;;;1.00;95.90;;;;;;5139689;28;19938;-95
2022/03/14 02:20:40;;;;;;;;;;;1.30;96.30;;;;;;5142154;28;19935;-94
2022/03/14 02:37:58;;;;;;;;;;;1.00;96.50;;;;;;5145565;27;20207;-69
2022/03/14 02:40:24;;;;;;;;;;;1.00;96.60;;;;;;5147373;27;19956;-69
2022/03/14 02:42:51;;;;;;;;;;;1.00;96.50;;;;;;5146966;27;20219;-69
2022/03/14 02:45:18;;;;;;;;;;;1.00;96.50;;;;;;5146593;27;19942;-69
2022/03/14 02:47:44;;;;;;;;;;;1.00;96.60;;;;;;5147221;27;19972;-69
2022/03/14 02:50:11;;;;;;;;;;;1.00;97.00;;;;;;5129561;27;19928;-69
2022/03/14 02:52:38;;;;;;;;;;;1.00;97.00;;;;;;5126564;28;19952;-70
2022/03/14 02:55:06;;;;;;;;;;;1.00;97.20;;;;;;5126272;28;19919;-69
2022/03/14 02:57:33;;;;;;;;;;;1.00;97.50;;;;;;5126000;28;19920;-69
2022/03/14 03:00:00;;;;;;;;;;;1.10;97.70;;;;;;5126299;28;19919;-69
2022/03/14 03:02:26;;;;;;;;;;;1.10;97.90;;;;;;5125981;28;20199;-69
2022/03/14 03:04:55;;;;;;;;;;;1.10;98.00;;;;;;5123000;28;20244;-69
2022/03/14 03:07:21;;;;;;;;;;;1.10;98.10;;;;;;5125871;28;20160;-69
2022/03/14 03:09:48;;;;;;;;;;;1.00;98.10;;;;;;5126144;28;19926;-69
2022/03/14 03:12:16;;;;;;;;;;;1.10;98.20;;;;;;5126167;28;19950;-69
2022/03/14 03:14:45;;;;;;;;;;;1.00;98.40;;;;;;5123719;28;20111;-69
2022/03/14 03:17:12;;;;;;;;;;;1.00;98.40;;;;;;5125378;28;19955;-69
2022/03/14 03:19:38;;;;;;;;;;;1.10;98.20;;;;;;5126146;28;19919;-69
2022/03/14 03:22:05;;;;;;;;;;;1.10;98.50;;;;;;5125971;28;19919;-69
2022/03/14 03:24:32;;;;;;;;;;;1.10;98.30;;;;;;5127863;27;19965;-69
2022/03/14 03:26:58;;;;;;;;;;;1.10;98.20;;;;;;5145095;27;20233;-69
2022/03/14 03:29:26;;;;;;;;;;;1.10;98.20;;;;;;5146042;27;19920;-69
2022/03/14 03:31:53;;;;;;;;;;;1.10;98.00;;;;;;5138934;27;20133;-69
2022/03/14 03:34:19;;;;;;;;;;;1.20;98.30;;;;;;5125257;28;19926;-69
2022/03/14 03:36:46;;;;;;;;;;;1.20;98.70;;;;;;5124758;28;19920;-69
2022/03/14 03:39:12;;;;;;;;;;;1.20;98.50;;;;;;5139476;27;19926;-69
2022/03/14 03:41:39;;;;;;;;;;;1.30;98.60;;;;;;5146052;27;19920;-70
2022/03/14 03:44:06;;;;;;;;;;;1.30;98.70;;;;;;5145556;27;19919;-69
2022/03/14 03:46:34;;;;;;;;;;;1.20;99.60;;;;;;5145320;27;20211;-69
2022/03/14 03:49:00;;;;;;;;;;;1.20;99.90;;;;;;5145561;27;20161;-69
2022/03/14 03:51:27;;;;;;;;;;;1.20;99.90;;;;;;5145873;27;19927;-69
2022/03/14 03:53:53;;;;;;;;;;;1.20;99.90;;;;;;5131448;27;19924;-69
2022/03/14 03:56:20;;;;;;;;;;;1.20;99.90;;;;;;5124487;28;19919;-69
2022/03/14 03:58:46;;;;;;;;;;;1.30;99.90;;;;;;5125152;28;19920;-69
2022/03/14 04:01:21;;;;;;;;;;;1.40;99.90;;;;;;5125050;28;19919;-69
2022/03/14 04:03:54;;;;;;;;;;;1.50;99.90;;;;;;5125229;28;19927;-69
2022/03/14 04:06:25;;;;;;;;;;;1.70;99.90;;;;;;5124526;28;19935;-69
2022/03/14 04:08:52;;;;;;;;;;;2.10;99.90;;;;;;5128885;27;19920;-70
2022/03/14 04:11:20;;;;;;;;;;;2.50;99.90;;;;;;5125096;28;19920;-70
2022/03/14 04:13:48;;;;;;;;;;;2.90;99.90;;;;;;5142664;27;20114;-69
2022/03/14 04:16:14;;;;;;;;;;;3.40;99.90;;;;;;5144555;27;19927;-69
2022/03/14 04:18:41;;;;;;;;;;;3.80;99.90;;;;;;5145413;27;19954;-69
2022/03/14 04:21:09;;;;;;;;;;;4.30;99.90;;;;;;5145162;27;20230;-69
2022/03/14 04:23:35;;;;;;;;;;;4.80;99.90;;;;;;5145456;27;19982;-69
2022/03/14 04:26:02;;;;;;;;;;;5.40;99.90;;;;;;5144646;27;19920;-69
2022/03/14 04:28:29;;;;;;;;;;;5.50;99.90;;;;;;5145308;27;19927;-69
2022/03/14 04:30:56;;;;;;;;;;;5.70;99.90;;;;;;5145322;27;20096;-69
2022/03/14 04:33:22;;;;;;;;;;;5.80;99.90;;;;;;5144911;27;20207;-70
2022/03/14 04:35:49;;;;;;;;;;;5.90;99.90;;;;;;5144290;27;19919;-70
2022/03/14 04:38:18;;;;;;;;;;;6.00;99.90;;;;;;5144943;27;19926;-69
2022/03/14 04:40:45;;;;;;;;;;;6.00;99.90;;;;;;5128517;27;19987;-69
2022/03/14 04:43:11;;;;;;;;;;;6.10;99.90;;;;;;5140800;27;19920;-69
2022/03/14 04:45:38;;;;;;;;;;;6.10;99.90;;;;;;5124144;27;19935;-70
2022/03/14 04:48:06;;;;;;;;;;;6.20;99.90;;;;;;5136000;28;19919;-69
2022/03/14 04:50:33;;;;;;;;;;;6.20;99.90;;;;;;5144881;27;19920;-70
2022/03/14 04:52:59;;;;;;;;;;;6.20;99.90;;;;;;5145061;28;19919;-69
2022/03/14 04:55:27;;;;;;;;;;;6.30;99.90;;;;;;5103157;28;19920;-69
2022/03/14 04:57:54;;;;;;;;;;;6.30;99.90;;;;;;5125103;28;19923;-69
2022/03/14 05:00:20;;;;;;;;;;;6.40;99.90;;;;;;5124397;28;19923;-69
2022/03/14 05:02:47;;;;;;;;;;;6.40;99.90;;;;;;5122659;28;19959;-69
2022/03/14 05:05:14;;;;;;;;;;;6.50;99.90;;;;;;5123743;28;19926;-69
2022/03/14 05:07:41;;;;;;;;;;;6.50;99.90;;;;;;5123958;28;20203;-70
2022/03/14 05:10:07;;;;;;;;;;;6.50;99.90;;;;;;5124317;28;19927;-69
2022/03/14 05:12:35;;;;;;;;;;;6.50;99.90;;;;;;5124361;28;19979;-69
2022/03/14 05:15:02;;;;;;;;;;;6.60;99.90;;;;;;5124202;28;19982;-70
2022/03/14 05:17:30;;;;;;;;;;;6.60;99.90;;;;;;5123427;28;19919;-69
2022/03/14 05:19:57;;;;;;;;;;;6.50;99.90;;;;;;5127510;28;19925;-70
2022/03/14 05:22:25;;;;;;;;;;;6.50;99.90;;;;;;5123148;28;19953;-70
2022/03/14 05:24:52;;;;;;;;;;;6.50;99.90;;;;;;5119855;28;20096;-69
2022/03/14 05:27:19;;;;;;;;;;;6.50;99.90;;;;;;5123675;28;19958;-69
2022/03/14 05:29:47;;;;;;;;;;;6.40;99.90;;;;;;5128886;28;19920;-70
2022/03/14 05:32:13;;;;;;;;;;;6.40;99.90;;;;;;5123804;28;19965;-70
2022/03/14 05:34:40;;;;;;;;;;;6.40;99.90;;;;;;5121889;28;19923;-70
2022/03/14 05:37:06;;;;;;;;;;;6.40;99.90;;;;;;5121026;28;20111;-69
2022/03/14 05:39:33;;;;;;;;;;;6.40;99.90;;;;;;5123689;28;20118;-69
2022/03/14 05:42:00;;;;;;;;;;;6.50;99.90;;;;;;5124077;28;19920;-70
2022/03/14 05:44:27;;;;;;;;;;;6.40;99.90;;;;;;5123666;28;19966;-69
2022/03/14 05:47:01;;;;;;;;;;;6.40;99.90;;;;;;5122565;28;20199;-69
2022/03/14 05:49:29;;;;;;;;;;;6.40;99.90;;;;;;5101089;28;20143;-69
2022/03/14 05:51:55;;;;;;;;;;;6.40;99.90;;;;;;5105478;28;20215;-69
2022/03/14 05:54:23;;;;;;;;;;;6.40;99.90;;;;;;5106809;28;20203;-69
2022/03/14 05:56:49;;;;;;;;;;;6.40;99.90;;;;;;5105327;28;19928;-71
2022/03/14 05:59:16;;;;;;;;;;;6.40;99.90;;;;;;5131100;27;20207;-70
2022/03/14 06:01:43;;;;;;;;;;;6.40;99.90;;;;;;5147715;27;20203;-70
2022/03/14 06:04:11;;;;;;;;;;;6.40;99.90;;;;;;5147564;27;19926;-69
2022/03/14 06:06:47;;;;;;;;;;;6.40;99.90;;;;;;5144445;27;19919;-69
2022/03/14 06:09:15;;;;;;;;;;;6.30;99.90;;;;;;5129055;27;19926;-69
2022/03/14 06:11:42;;;;;;;;;;;6.40;99.90;;;;;;5120206;27;19926;-69
2022/03/14 06:14:08;;;;;;;;;;;6.30;99.90;;;;;;5126844;28;20199;-69
2022/03/14 06:16:35;;;;;;;;;;;6.30;99.90;;;;;;5126503;28;20115;-69
2022/03/14 06:19:02;;;;;;;;;;;6.30;99.90;;;;;;5126892;28;19920;-68
2022/03/14 06:21:53;;;;;;;;;;;6.20;99.90;;;;;;5126517;28;19920;-69
2022/03/14 06:24:21;;;;;;;;;;;6.20;99.90;;;;;;5127175;28;19982;-69
2022/03/14 06:26:47;;;;;;;;;;;6.20;99.90;;;;;;5126450;28;19919;-70
2022/03/14 06:29:14;;;;;;;;;;;6.20;99.90;;;;;;5127317;27;19926;-67
2022/03/14 06:31:40;;;;;;;;;;;6.20;99.90;;;;;;5126572;28;19919;-67
2022/03/14 06:34:07;;;;;;;;;;;6.10;99.90;;;;;;5126335;28;19920;-68
2022/03/14 06:36:34;;;;;;;;;;;6.10;99.90;;;;;;5125838;28;19920;-68
2022/03/14 06:39:00;;;;;;;;;;;6.10;99.90;;;;;;5145804;27;19951;-68
2022/03/14 06:41:29;;;;;;;;;;;6.10;99.90;;;;;;5126757;28;19927;-68
2022/03/14 06:43:56;;;;;;;;;;;6.10;99.90;;;;;;5127501;27;19919;-68
2022/03/14 06:46:23;;;;;;;;;;;6.10;99.90;;;;;;5133225;27;19919;-67
2022/03/14 06:48:50;;;;;;;;;;;6.10;99.90;;;;;;5142069;27;19920;-67
2022/03/14 06:51:16;;;;;;;;;;;6.10;99.90;;;;;;5139786;27;19919;-68
2022/03/14 06:53:43;;;;;;;;;;;6.10;99.90;;;;;;5144067;27;19998;-71
2022/03/14 06:56:10;;;;;;;;;;;6.20;99.90;;;;;;5145756;27;19951;-71
2022/03/14 06:58:38;;;;;;;;;;;6.20;99.90;;;;;;5146898;27;19955;-71
2022/03/14 07:01:04;;;;;;;;;;;6.20;99.90;;;;;;5147008;27;19919;-71
2022/03/14 07:03:31;;;;;;;;;;;6.20;99.90;;;;;;5142477;27;19920;-70
2022/03/14 07:05:57;;;;;;;;;;;6.20;99.90;;;;;;5137475;27;19926;-72
2022/03/14 07:08:25;;;;;;;;;;;6.20;99.90;;;;;;5124750;27;19998;-71
2022/03/14 07:10:53;;;;;;;;;;;6.20;99.90;;;;;;5125495;28;19958;-70
2022/03/14 07:15:51;;;;;;;;;;;6.20;99.90;;;;;;5098568;28;20715;-70
2022/03/14 07:18:18;;;;;;;;;;;6.30;99.90;;;;;;5104207;28;19928;-71
2022/03/14 07:20:44;;;;;;;;;;;6.30;99.90;;;;;;5085098;28;19921;-71
2022/03/14 07:23:11;;;;;;;;;;;6.30;99.90;;;;;;5096111;28;19920;-72
2022/03/14 07:25:39;;;;;;;;;;;6.30;99.90;;;;;;5095559;28;19920;-71
2022/03/14 07:28:07;;;;;;;;;;;6.30;99.90;;;;;;5084746;28;19924;-71
2022/03/14 07:30:34;;;;;;;;;;;6.40;99.90;;;;;;5087111;28;19920;-71
2022/03/14 07:33:01;;;;;;;;;;;6.40;99.90;;;;;;5103992;28;19959;-71
2022/03/14 07:35:29;;;;;;;;;;;6.40;99.90;;;;;;5103251;28;19924;-70
2022/03/14 07:37:55;;;;;;;;;;;6.50;99.90;;;;;;5103933;28;19958;-71
2022/03/14 07:40:22;;;;;;;;;;;6.50;99.90;;;;;;5088644;28;19928;-71
2022/03/14 07:42:50;;;;;;;;;;;6.50;99.90;;;;;;5091804;28;19935;-68
2022/03/14 07:45:18;;;;;;;;;;;6.50;99.90;;;;;;5099367;28;19927;-71
2022/03/14 07:47:45;;;;;;;;;;;6.50;99.90;;;;;;5102545;28;20211;-70
2022/03/14 07:50:15;;;;;;;;;;;6.60;99.90;;;;;;5101636;28;20115;-71
2022/03/14 07:52:42;;;;;;;;;;;6.60;99.90;;;;;;5084003;28;19920;-72
2022/03/14 07:55:09;;;;;;;;;;;6.70;99.90;;;;;;5084176;28;19925;-71
2022/03/14 07:57:36;;;;;;;;;;;6.70;99.90;;;;;;5101495;28;19927;-71
2022/03/14 08:00:04;;;;;;;;;;;6.70;99.90;;;;;;5104231;28;20222;-71
2022/03/14 08:02:30;;;;;;;;;;;6.80;99.90;;;;;;5104176;28;19920;-71
2022/03/14 08:04:57;;;;;;;;;;;6.80;99.90;;;;;;5104142;28;19920;-70
2022/03/14 08:07:28;;;;;;;;;;;6.80;99.90;;;;;;5103971;28;20111;-70
2022/03/14 08:09:56;;;;;;;;;;;6.80;99.90;;;;;;5104141;28;19950;-71
2022/03/14 08:12:22;;;;;;;;;;;6.90;99.90;;;;;;5103819;28;19936;-72
2022/03/14 08:14:49;;;;;;;;;;;6.90;99.90;;;;;;5103615;28;19920;-71
2022/03/14 08:17:17;;;;;;;;;;;6.90;99.90;;;;;;5103571;28;19920;-70
2022/03/14 08:19:46;;;;;;;;;;;6.90;99.90;;;;;;5101393;28;19924;-71
2022/03/14 08:22:13;;;;;;;;;;;7.00;99.90;;;;;;5104431;28;19983;-71
2022/03/14 08:24:46;;;;;;;;;;;7.00;99.90;;;;;;5101738;28;19927;-72
2022/03/14 08:27:13;;;;;;;;;;;7.10;99.90;;;;;;5103597;28;19920;-72
2022/03/14 08:29:40;;;;;;;;;;;7.10;99.90;;;;;;5104145;28;19920;-71
2022/03/14 08:32:07;;;;;;;;;;;7.20;99.90;;;;;;5104009;28;19998;-71
2022/03/14 08:34:34;;;;;;;;;;;7.30;99.90;;;;;;5104007;28;19942;-71
2022/03/14 08:37:00;;;;;;;;;;;7.30;99.90;;;;;;5102979;28;20489;-71
2022/03/14 08:39:27;;;;;;;;;;;7.40;99.90;;;;;;5095637;28;19927;-70
2022/03/14 08:41:55;;;;;;;;;;;7.40;99.90;;;;;;5101119;28;19920;-71
2022/03/14 08:44:21;;;;;;;;;;;7.50;99.90;;;;;;5103820;28;19927;-71
2022/03/14 08:46:48;;;;;;;;;;;7.50;99.90;;;;;;5103386;28;19920;-71
2022/03/14 08:49:15;;;;;;;;;;;7.50;99.90;;;;;;5103882;28;19987;-69
2022/03/14 08:51:41;;;;;;;;;;;7.50;99.90;;;;;;5085909;28;20309;-71
2022/03/14 08:54:08;;;;;;;;;;;7.50;99.90;;;;;;5083254;28;20142;-71
2022/03/14 08:56:35;;;;;;;;;;;7.50;99.90;;;;;;5083125;28;19920;-71
2022/03/14 08:59:03;;;;;;;;;;;7.50;99.90;;;;;;5083582;28;19963;-71
2022/03/14 09:01:30;;;;;;;;;;;7.60;99.90;;;;;;5083689;28;19958;-71
2022/03/14 09:03:56;;;;;;;;;;;7.60;99.90;;;;;;5083523;28;19928;-71
2022/03/14 09:06:24;;;;;;;;;;;7.60;99.90;;;;;;5085097;28;19928;-71
2022/03/14 09:08:50;;;;;;;;;;;7.60;99.90;;;;;;5103550;28;19962;-71
2022/03/14 09:11:19;;;;;;;;;;;7.70;99.90;;;;;;5103778;28;19920;-71
2022/03/14 09:13:45;;;;;;;;;;;7.80;99.90;;;;;;5103582;28;19924;-71
2022/03/14 09:16:13;;;;;;;;;;;7.80;99.90;;;;;;5102992;28;19921;-71
2022/03/14 09:18:42;;;;;;;;;;;7.80;99.90;;;;;;5101233;28;20099;-71
2022/03/14 09:21:09;;;;;;;;;;;7.80;99.90;;;;;;5102223;28;19924;-71
2022/03/14 09:23:36;;;;;;;;;;;7.90;99.90;;;;;;5103322;28;20384;-72
2022/03/14 09:26:03;;;;;;;;;;;7.80;99.90;;;;;;5101801;28;19965;-71
2022/03/14 09:28:30;;;;;;;;;;;7.80;99.90;;;;;;5107477;28;19920;-72
2022/03/14 09:30:58;;;;;;;;;;;7.80;99.90;;;;;;5090108;28;19920;-71
2022/03/14 09:33:26;;;;;;;;;;;7.90;99.90;;;;;;5086929;28;19927;-72
2022/03/14 09:35:52;;;;;;;;;;;7.90;99.90;;;;;;5086496;28;20111;-71
2022/03/14 09:38:19;;;;;;;;;;;8.00;99.90;;;;;;5086640;28;20212;-72
2022/03/14 09:40:46;;;;;;;;;;;8.00;99.90;;;;;;5086784;28;19920;-71
2022/03/14 09:43:14;;;;;;;;;;;8.00;99.90;;;;;;5099217;28;19942;-71
2022/03/14 09:45:45;;;;;;;;;;;8.00;99.90;;;;;;5106591;28;19926;-71
2022/03/14 09:48:14;;;;;;;;;;;8.00;99.90;;;;;;5107250;28;19927;-71
2022/03/14 09:50:44;;;;;;;;;;;8.10;99.90;;;;;;5106873;28;19927;-71
2022/03/14 09:53:11;;;;;;;;;;;8.20;99.90;;;;;;5106882;28;20146;-72
2022/03/14 09:55:40;;;;;;;;;;;8.20;99.90;;;;;;5106473;28;19920;-72
2022/03/14 09:58:07;;;;;;;;;;;8.30;99.90;;;;;;5095233;28;19921;-70
2022/03/14 10:00:34;;;;;;;;;;;8.40;99.90;;;;;;5102082;28;19920;-71
2022/03/14 10:03:02;;;;;;;;;;;8.40;99.90;;;;;;5106934;28;19920;-71
2022/03/14 10:05:29;;;;;;;;;;;8.40;99.90;;;;;;5106347;28;19928;-70
2022/03/14 10:07:57;;;;;;;;;;;8.40;99.90;;;;;;5106892;28;19920;-71
2022/03/14 10:10:23;;;;;;;;;;;8.50;99.90;;;;;;5106658;28;19920;-71
2022/03/14 10:12:53;;;;;;;;;;;8.50;99.90;;;;;;5107888;28;20219;-70
2022/03/14 10:15:20;;;;;;;;;;;8.50;99.90;;;;;;5112911;28;20124;-71
2022/03/14 10:17:46;;;;;;;;;;;8.50;99.90;;;;;;5106615;28;19965;-69
2022/03/14 10:20:20;;;;;;;;;;;8.50;99.90;;;;;;5104283;28;19928;-71
2022/03/14 10:22:47;;;;;;;;;;;8.40;99.90;;;;;;5106686;28;19920;-72
2022/03/14 10:25:16;;;;;;;;;;;8.40;99.90;;;;;;5103675;28;19974;-71
2022/03/14 10:27:45;;;;;;;;;;;8.40;99.90;;;;;;5106577;28;19920;-72
2022/03/14 10:30:22;;;;;;;;;;;8.50;99.90;;;;;;5106008;28;19924;-71
2022/03/14 10:32:49;;;;;;;;;;;8.70;99.90;;;;;;5105947;28;20207;-71
2022/03/14 10:35:19;;;;;;;;;;;9.00;99.90;;;;;;5105766;28;20110;-71
2022/03/14 10:37:58;;;;;;;;;;;9.30;99.90;;;;;;5097578;28;19925;-71
2022/03/14 10:40:29;;;;;;;;;;;9.60;99.90;;;;;;5085956;28;19927;-71
2022/03/14 10:42:57;;;;;;;;;;;9.80;99.90;;;;;;5092357;28;19932;-71
2022/03/14 10:45:23;;;;;;;;;;;9.80;99.90;;;;;;5105336;28;19920;-71
2022/03/14 10:47:53;;;;;;;;;;;9.70;99.90;;;;;;5105576;28;20211;-70
2022/03/14 10:50:29;;;;;;;;;;;9.30;99.90;;;;;;5099471;28;19928;-71
2022/03/14 10:53:07;;;;;;;;;;;8.90;99.90;;;;;;5085583;28;19990;-70
2022/03/14 10:55:38;;;;;;;;;;;8.60;99.90;;;;;;5085044;28;19986;-71
2022/03/14 10:58:09;;;;;;;;;;;8.40;99.90;;;;;;5085676;28;19935;-71
2022/03/14 11:00:46;;;;;;;;;;;8.40;99.90;;;;;;5085319;28;20116;-69
2022/03/14 11:03:12;;;;;;;;;;;8.50;99.90;;;;;;5085337;28;19920;-71
2022/03/14 11:05:43;;;;;;;;;;;8.80;99.90;;;;;;5085097;28;19934;-71
2022/03/14 11:08:24;;;;;;;;;;;9.00;99.90;;;;;;5086498;28;19921;-71
2022/03/14 11:10:51;;;;;;;;;;;9.20;99.90;;;;;;5087543;28;19927;-72
2022/03/14 11:13:19;;;;;;;;;;;9.40;99.90;;;;;;5097489;28;19963;-72
2022/03/14 11:15:46;;;;;;;;;;;9.60;99.90;;;;;;5104968;28;19991;-71
2022/03/14 11:18:16;;;;;;;;;;;10.00;99.90;;;;;;5102826;28;20456;-72
2022/03/14 11:20:42;;;;;;;;;;;10.20;99.90;;;;;;5105193;28;20138;-72
2022/03/14 11:23:10;;;;;;;;;;;10.50;99.90;;;;;;5105020;28;20119;-70
2022/03/14 11:25:38;;;;;;;;;;;10.70;99.90;;;;;;5095728;28;19935;-72
2022/03/14 11:28:05;;;;;;;;;;;10.90;99.90;;;;;;5105173;28;19961;-72
2022/03/14 11:30:35;;;;;;;;;;;11.00;99.90;;;;;;5105532;28;19927;-72
2022/03/14 11:33:03;;;;;;;;;;;10.90;99.90;;;;;;5104957;28;19920;-72
2022/03/14 11:35:32;;;;;;;;;;;10.90;99.90;;;;;;5101789;28;20146;-72
2022/03/14 11:37:58;;;;;;;;;;;10.90;99.90;;;;;;5091746;28;20211;-72
2022/03/14 11:40:25;;;;;;;;;;;10.70;99.90;;;;;;5084426;28;20135;-72
2022/03/14 11:42:51;;;;;;;;;;;10.70;99.90;;;;;;5090565;28;19920;-72
2022/03/14 11:45:18;;;;;;;;;;;10.80;99.90;;;;;;5103900;28;19935;-72
2022/03/14 11:47:46;;;;;;;;;;;11.00;99.90;;;;;;5104748;28;19977;-72
2022/03/14 11:50:14;;;;;;;;;;;11.30;99.90;;;;;;5104194;28;19920;-73
2022/03/14 11:52:41;;;;;;;;;;;11.40;99.90;;;;;;5104878;28;19926;-72
2022/03/14 11:55:18;;;;;;;;;;;11.40;99.90;;;;;;5104000;28;19924;-72
2022/03/14 11:57:45;;;;;;;;;;;11.30;99.90;;;;;;5104651;28;19920;-71
2022/03/14 12:00:33;;;;;;;;;;;11.20;99.90;;;;;;5087459;28;19920;-71
2022/03/14 12:03:02;;;;;;;;;;;10.90;99.90;;;;;;5079008;28;19921;-71
2022/03/14 12:05:43;;;;;;;;;;;10.80;99.90;;;;;;5093983;28;19935;-71
2022/03/14 12:08:30;;;;;;;;;;;11.00;99.90;;;;;;5104064;28;19920;-72
2022/03/14 12:11:16;;;;;;;;;;;11.10;99.90;;;;;;5104233;28;19987;-71
2022/03/14 12:13:44;;;;;;;;;;;11.10;99.90;;;;;;5091809;28;19929;-71
2022/03/14 12:16:25;;;;;;;;;;;10.90;99.90;;;;;;5084949;28;19928;-69
2022/03/14 12:18:58;;;;;;;;;;;10.70;99.90;;;;;;5083041;28;19924;-72
2022/03/14 12:21:42;;;;;;;;;;;10.60;99.90;;;;;;5085792;28;19924;-72
2022/03/14 12:24:08;;;;;;;;;;;10.70;99.90;;;;;;5090280;28;19932;-71
2022/03/14 12:26:43;;;;;;;;;;;10.80;99.90;;;;;;5091151;28;19928;-71
2022/03/14 12:29:25;;;;;;;;;;;10.90;99.90;;;;;;5083483;28;20231;-71
2022/03/14 12:32:06;;;;;;;;;;;10.90;99.90;;;;;;5082981;28;19920;-71
2022/03/14 12:34:34;;;;;;;;;;;11.10;99.90;;;;;;5086602;28;20223;-70
2022/03/14 12:37:01;;;;;;;;;;;11.40;99.90;;;;;;5098841;28;19920;-71
2022/03/14 12:39:27;;;;;;;;;;;11.60;99.90;;;;;;5096334;28;19921;-71
2022/03/14 12:41:54;;;;;;;;;;;11.60;99.90;;;;;;5083618;28;19920;-71
2022/03/14 12:44:21;;;;;;;;;;;11.70;99.90;;;;;;5083095;28;20123;-71
2022/03/14 12:46:49;;;;;;;;;;;11.60;99.90;;;;;;5086242;28;19926;-71
2022/03/14 12:49:24;;;;;;;;;;;11.70;99.90;;;;;;5091704;28;19924;-71
2022/03/14 12:52:08;;;;;;;;;;;12.00;99.90;;;;;;5100128;28;19924;-71
2022/03/14 12:54:35;;;;;;;;;;;12.30;99.90;;;;;;5083777;28;19921;-72
2022/03/14 12:57:02;;;;;;;;;;;12.80;99.90;;;;;;5098901;28;19927;-71
2022/03/14 12:59:29;;;;;;;;;;;13.10;99.90;;;;;;5093695;28;20111;-72
2022/03/14 13:01:55;;;;;;;;;;;13.40;99.90;;;;;;5103338;28;19920;-72
2022/03/14 13:04:22;;;;;;;;;;;13.30;99.90;;;;;;5102114;28;19921;-71
2022/03/14 13:06:49;;;;;;;;;;;13.30;99.90;;;;;;5087863;28;19927;-72
2022/03/14 13:09:27;;;;;;;;;;;12.90;99.90;;;;;;5104940;28;19966;-72
2022/03/14 13:11:57;;;;;;;;;;;12.70;99.90;;;;;;5095975;28;19927;-71
2022/03/14 13:14:24;;;;;;;;;;;12.40;99.90;;;;;;5127208;22;19928;-92
2022/03/14 13:16:52;;;;;;;;;;;12.30;99.90;;;;;;5130432;28;19920;-92
2022/03/14 13:19:19;;;;;;;;;;;12.50;99.90;;;;;;5134932;28;20274;-92
2022/03/14 13:21:47;;;;;;;;;;;12.80;99.90;;;;;;5136180;28;19919;-91
2022/03/14 13:24:13;;;;;;;;;;;13.70;99.90;;;;;;5133998;28;19986;-93
2022/03/14 13:26:42;;;;;;;;;;;13.20;99.90;;;;;;5143791;22;20026;-72
2022/03/14 13:29:09;;;;;;;;;;;13.10;99.90;;;;;;5106960;28;19920;-72
2022/03/14 13:31:37;;;;;;;;;;;13.40;99.90;;;;;;5105735;28;19943;-72
2022/03/14 13:34:04;;;;;;;;;;;13.40;99.90;;;;;;5101430;28;20216;-72
2022/03/14 13:36:39;;;;;;;;;;;13.30;99.90;;;;;;5084378;28;19984;-73
2022/03/14 13:39:07;;;;;;;;;;;13.10;99.90;;;;;;5085621;28;19929;-72
2022/03/14 13:41:34;;;;;;;;;;;12.90;99.90;;;;;;5086302;28;19920;-72
2022/03/14 13:44:04;;;;;;;;;;;12.90;99.90;;;;;;5086319;28;20119;-72
2022/03/14 13:46:32;;;;;;;;;;;12.70;99.90;;;;;;5085094;28;19920;-73
2022/03/14 13:49:00;;;;;;;;;;;12.80;99.90;;;;;;5086375;28;19920;-71
2022/03/14 13:51:27;;;;;;;;;;;12.70;99.90;;;;;;5085809;28;19920;-72
2022/03/14 13:53:54;;;;;;;;;;;12.80;99.90;;;;;;5086135;28;19927;-72
2022/03/14 13:56:20;;;;;;;;;;;12.80;99.90;;;;;;5085760;28;19927;-72
2022/03/14 13:58:54;;;;;;;;;;;12.70;99.90;;;;;;5085328;28;19924;-72
2022/03/14 14:01:38;;;;;;;;;;;12.60;99.90;;;;;;5085932;28;20003;-72
2022/03/14 14:04:09;;;;;;;;;;;12.30;99.90;;;;;;5085660;28;19920;-72
2022/03/14 14:06:44;;;;;;;;;;;12.20;99.90;;;;;;5085333;28;19921;-72
2022/03/14 14:09:21;;;;;;;;;;;12.20;99.90;;;;;;5081530;28;19927;-71
2022/03/14 14:12:01;;;;;;;;;;;12.20;99.90;;;;;;5085070;28;19975;-72
2022/03/14 14:14:28;;;;;;;;;;;12.20;99.90;;;;;;5085547;28;19928;-72
2022/03/14 14:17:09;;;;;;;;;;;12.40;99.90;;;;;;5084865;28;19967;-71
2022/03/14 14:19:36;;;;;;;;;;;12.40;99.90;;;;;;5085602;28;19928;-71
2022/03/14 14:22:02;;;;;;;;;;;12.40;99.90;;;;;;5085780;28;20199;-72
2022/03/14 14:24:30;;;;;;;;;;;12.20;99.90;;;;;;5085552;28;19928;-72
2022/03/14 14:26:57;;;;;;;;;;;12.10;99.90;;;;;;5084834;28;19955;-72
2022/03/14 14:29:42;;;;;;;;;;;12.10;99.90;;;;;;5085836;28;19926;-71
2022/03/14 14:32:18;;;;;;;;;;;12.20;99.90;;;;;;5085665;28;19927;-72
2022/03/14 14:34:45;;;;;;;;;;;12.10;99.90;;;;;;5085153;28;19927;-72
2022/03/14 14:37:35;;;;;;;;;;;12.00;99.90;;;;;;5081412;28;19920;-73
2022/03/14 14:40:03;;;;;;;;;;;12.00;99.90;;;;;;5066169;28;19963;-71
2022/03/14 14:42:30;;;;;;;;;;;12.00;99.90;;;;;;5065799;28;19925;-71
2022/03/14 14:44:58;;;;;;;;;;;12.20;99.90;;;;;;5065659;28;19921;-71
2022/03/14 14:47:26;;;;;;;;;;;12.40;99.90;;;;;;5072821;28;20096;-71
2022/03/14 14:49:53;;;;;;;;;;;12.60;99.90;;;;;;5083042;28;19933;-71